Time;durP1;ratioP1;P1;durP2;ratioP2;P2;SDS_P1;SDS_P2;PMS_P1;PMS_P2;Temp;Humidity;BMP_temperature;BMP_pressure;BME280_temperature;BME280_humidity;BME280_pressure;Samples;Min_cycle;Max_cycle;Signal;HPM_P1;HPM_P2
2023/11/05 00:02:06;;;;;;;2.63;0.70;;;12.70;99.90;;;;;;5054436;28;20370;-72
2023/11/05 00:04:32;;;;;;;5.30;0.85;;;12.80;99.90;;;;;;5054188;28;20539;-72
2023/11/05 00:06:58;;;;;;;3.80;0.80;;;12.80;99.90;;;;;;5054325;28;20033;-72
2023/11/05 00:09:24;;;;;;;2.63;0.80;;;12.80;99.90;;;;;;5054647;28;20381;-72
2023/11/05 00:11:50;;;;;;;5.68;0.60;;;12.80;99.90;;;;;;5054421;28;20035;-72
2023/11/05 00:14:19;;;;;;;2.25;0.60;;;12.80;99.90;;;;;;5054464;28;20036;-72
2023/11/05 00:16:45;;;;;;;3.63;0.50;;;12.80;99.90;;;;;;5053739;28;20107;-72
2023/11/05 00:19:11;;;;;;;2.22;0.40;;;12.80;99.90;;;;;;5054054;28;20037;-73
2023/11/05 00:21:37;;;;;;;1.45;0.35;;;12.80;99.90;;;;;;5054384;28;20083;-72
2023/11/05 00:24:03;;;;;;;2.25;0.60;;;12.90;99.90;;;;;;5052662;28;20045;-72
2023/11/05 00:26:32;;;;;;;1.45;0.30;;;12.90;99.90;;;;;;5054211;28;20029;-74
2023/11/05 00:29:00;;;;;;;2.65;0.30;;;12.90;99.90;;;;;;5053683;28;20044;-72
2023/11/05 00:31:26;;;;;;;0.60;0.10;;;13.00;99.90;;;;;;5053842;28;20028;-72
2023/11/05 00:33:52;;;;;;;0.85;0.28;;;13.00;99.90;;;;;;5053526;28;20079;-71
2023/11/05 00:36:18;;;;;;;1.23;0.20;;;13.10;99.90;;;;;;5053777;28;20401;-72
2023/11/05 00:38:44;;;;;;;1.20;0.30;;;13.10;99.90;;;;;;5053379;28;20476;-71
2023/11/05 00:41:13;;;;;;;2.30;0.20;;;13.20;99.90;;;;;;5053354;28;20025;-72
2023/11/05 00:43:41;;;;;;;0.82;0.20;;;13.20;99.90;;;;;;5053432;28;20038;-72
2023/11/05 00:46:08;;;;;;;2.55;0.40;;;13.20;99.90;;;;;;5053844;28;20037;-72
2023/11/05 00:48:34;;;;;;;2.47;0.20;;;13.40;99.90;;;;;;5053848;28;20025;-72
2023/11/05 00:51:03;;;;;;;2.53;0.47;;;13.30;99.90;;;;;;5053331;28;20043;-72
2023/11/05 00:53:29;;;;;;;2.35;0.38;;;13.30;99.90;;;;;;5053733;28;20036;-72
2023/11/05 00:55:55;;;;;;;1.52;0.40;;;13.40;99.90;;;;;;5053565;28;20500;-72
2023/11/05 00:58:21;;;;;;;0.90;0.10;;;13.40;99.90;;;;;;5053637;28;20043;-72
2023/11/05 01:00:47;;;;;;;1.17;0.30;;;13.40;99.90;;;;;;5053415;28;20112;-71
2023/11/05 01:03:13;;;;;;;1.55;0.30;;;13.30;99.90;;;;;;5053120;28;20112;-72
2023/11/05 01:05:39;;;;;;;1.30;0.17;;;13.50;99.90;;;;;;5053147;28;20166;-72
2023/11/05 01:08:05;;;;;;;0.47;0.10;;;13.40;99.90;;;;;;5052634;28;20037;-72
2023/11/05 01:10:31;;;;;;;1.48;0.20;;;13.40;99.90;;;;;;5053222;28;20102;-71
2023/11/05 01:12:56;;;;;;;1.02;0.30;;;13.40;99.90;;;;;;5053133;28;20033;-72
2023/11/05 01:15:26;;;;;;;2.08;0.30;;;13.50;99.90;;;;;;5052911;28;20039;-72
2023/11/05 01:17:52;;;;;;;2.38;0.40;;;13.40;99.90;;;;;;5052935;28;20029;-72
2023/11/05 01:20:17;;;;;;;1.13;0.20;;;13.50;99.90;;;;;;5053000;28;20033;-72
2023/11/05 01:22:43;;;;;;;4.13;0.32;;;13.50;99.90;;;;;;5053181;28;20472;-72
2023/11/05 01:25:12;;;;;;;1.30;0.30;;;13.60;99.90;;;;;;5052841;28;20515;-72
2023/11/05 01:27:38;;;;;;;1.90;0.30;;;13.60;99.90;;;;;;5053129;28;20029;-71
2023/11/05 01:30:04;;;;;;;1.42;0.40;;;13.70;99.90;;;;;;5053030;28;20031;-72
2023/11/05 01:32:33;;;;;;;6.15;1.38;;;13.70;99.90;;;;;;5052770;28;20116;-72
2023/11/05 01:34:59;;;;;;;1.83;0.32;;;13.70;99.90;;;;;;5052342;28;20049;-73
2023/11/05 01:37:25;;;;;;;3.97;0.73;;;13.70;99.90;;;;;;5051546;28;20033;-73
2023/11/05 01:39:51;;;;;;;6.82;0.93;;;13.70;99.90;;;;;;5052666;28;20037;-72
2023/11/05 01:42:18;;;;;;;5.30;0.70;;;13.80;99.90;;;;;;5052528;28;20416;-72
2023/11/05 01:44:44;;;;;;;5.22;0.80;;;13.80;99.90;;;;;;5052631;28;20041;-73
2023/11/05 01:47:10;;;;;;;4.15;0.60;;;13.80;99.90;;;;;;5052780;28;20076;-72
2023/11/05 01:49:37;;;;;;;3.17;0.70;;;13.90;99.90;;;;;;5052403;28;20029;-73
2023/11/05 01:52:04;;;;;;;4.55;1.00;;;13.90;99.90;;;;;;5052471;28;20041;-72
2023/11/05 01:54:30;;;;;;;3.58;0.90;;;13.90;99.90;;;;;;5052422;28;20064;-72
2023/11/05 01:56:56;;;;;;;4.57;0.77;;;13.90;99.90;;;;;;5051338;28;20033;-72
2023/11/05 01:59:22;;;;;;;6.28;1.17;;;13.90;99.90;;;;;;5049397;28;20044;-72
2023/11/05 02:01:49;;;;;;;3.60;0.70;;;13.90;99.90;;;;;;5049538;28;20502;-72
2023/11/05 02:04:15;;;;;;;5.25;0.85;;;13.90;99.90;;;;;;5050033;28;20051;-71
2023/11/05 02:06:41;;;;;;;9.10;1.00;;;13.90;99.90;;;;;;5051956;28;20025;-72
2023/11/05 02:09:07;;;;;;;5.93;1.00;;;14.00;99.90;;;;;;5052199;28;20122;-72
2023/11/05 02:11:33;;;;;;;7.15;1.42;;;14.00;99.90;;;;;;5052485;28;20489;-72
2023/11/05 02:13:59;;;;;;;7.85;1.00;;;14.10;99.90;;;;;;5051944;28;20416;-72
2023/11/05 02:16:31;;;;;;;9.32;1.23;;;14.10;99.90;;;;;;5052450;28;20040;-72
2023/11/05 02:18:59;;;;;;;7.78;1.30;;;14.10;99.90;;;;;;5052409;28;20029;-72
2023/11/05 02:21:44;;;;;;;12.05;1.70;;;14.20;99.90;;;;;;5056143;28;20515;-72
2023/11/05 02:24:10;;;;;;;8.93;1.30;;;14.20;99.90;;;;;;5056086;28;20056;-72
2023/11/05 02:26:36;;;;;;;9.93;1.65;;;14.20;99.90;;;;;;5056416;28;20064;-72
2023/11/05 02:29:10;;;;;;;10.15;1.98;;;14.30;99.90;;;;;;5055616;28;20056;-72
2023/11/05 02:31:36;;;;;;;13.63;2.25;;;14.30;99.90;;;;;;5055944;28;20389;-72
2023/11/05 02:34:03;;;;;;;19.00;2.05;;;14.30;99.90;;;;;;5055891;28;20056;-73
2023/11/05 02:36:28;;;;;;;10.55;1.65;;;14.30;99.90;;;;;;5055904;28;20029;-72
2023/11/05 02:38:54;;;;;;;17.90;2.08;;;14.40;99.90;;;;;;5055932;28;20041;-72
2023/11/05 02:41:20;;;;;;;10.20;1.55;;;14.40;99.90;;;;;;5055992;28;20111;-73
2023/11/05 02:43:49;;;;;;;13.05;1.95;;;14.40;99.90;;;;;;5055733;28;20496;-72
2023/11/05 02:46:15;;;;;;;12.93;2.05;;;14.40;99.90;;;;;;5055695;28;20480;-72
2023/11/05 02:48:44;;;;;;;10.25;1.88;;;14.40;99.90;;;;;;5054340;28;20455;-72
2023/11/05 02:51:10;;;;;;;15.10;2.72;;;14.50;99.90;;;;;;5055703;28;20029;-72
2023/11/05 02:53:39;;;;;;;11.10;1.92;;;14.50;99.90;;;;;;5055585;28;20108;-72
2023/11/05 02:56:05;;;;;;;19.60;2.75;;;14.50;99.90;;;;;;5055747;28;20100;-73
2023/11/05 02:58:31;;;;;;;22.48;3.25;;;14.50;99.90;;;;;;5055704;28;20040;-73
2023/11/05 03:00:57;;;;;;;21.75;3.08;;;14.50;99.90;;;;;;5055512;28;20025;-72
2023/11/05 03:03:23;;;;;;;20.52;4.10;;;14.60;99.90;;;;;;5055584;28;20100;-72
2023/11/05 03:05:49;;;;;;;22.70;3.55;;;14.60;99.90;;;;;;5055562;28;20041;-73
2023/11/05 03:08:15;;;;;;;20.92;2.83;;;14.60;99.90;;;;;;5055469;28;20044;-73
2023/11/05 03:10:44;;;;;;;17.55;3.30;;;14.70;99.90;;;;;;5055656;28;20041;-73
2023/11/05 03:13:10;;;;;;;19.75;2.33;;;14.80;99.90;;;;;;5055565;28;20025;-73
2023/11/05 03:15:36;;;;;;;23.52;3.00;;;14.80;99.90;;;;;;5055354;28;20124;-73
2023/11/05 03:18:02;;;;;;;15.55;2.38;;;14.90;99.90;;;;;;5055675;28;20091;-72
2023/11/05 03:20:28;;;;;;;21.05;3.17;;;14.90;99.90;;;;;;5054974;28;20060;-73
2023/11/05 03:22:54;;;;;;;24.25;3.42;;;15.00;99.90;;;;;;5055171;28;20037;-72
2023/11/05 03:25:23;;;;;;;19.33;3.67;;;15.00;99.90;;;;;;5055568;28;20045;-72
2023/11/05 03:27:49;;;;;;;24.67;2.80;;;15.10;99.90;;;;;;5055125;28;20106;-72
2023/11/05 03:30:15;;;;;;;27.95;2.97;;;15.10;99.90;;;;;;5055301;28;20489;-72
2023/11/05 03:32:41;;;;;;;21.45;3.70;;;15.10;99.90;;;;;;5054298;28;20033;-72
2023/11/05 03:35:10;;;;;;;21.25;3.67;;;15.20;99.90;;;;;;5054851;28;20103;-72
2023/11/05 03:37:37;;;;;;;23.20;4.25;;;15.20;99.90;;;;;;5054445;28;20385;-72
2023/11/05 03:40:03;;;;;;;25.73;4.60;;;15.30;99.90;;;;;;5055188;28;20037;-72
2023/11/05 03:42:30;;;;;;;25.70;3.85;;;15.30;99.90;;;;;;5055115;28;20029;-73
2023/11/05 03:44:56;;;;;;;21.88;4.07;;;15.30;99.90;;;;;;5054549;28;20136;-73
2023/11/05 03:47:22;;;;;;;26.15;3.60;;;15.40;99.90;;;;;;5054906;28;20035;-72
2023/11/05 03:49:47;;;;;;;32.30;4.60;;;15.40;99.90;;;;;;5054790;28;20033;-72
2023/11/05 03:52:14;;;;;;;25.10;4.20;;;15.40;99.90;;;;;;5054739;28;20120;-72
2023/11/05 03:54:43;;;;;;;22.92;3.33;;;15.40;99.90;;;;;;5054808;28;20112;-72
2023/11/05 03:57:08;;;;;;;28.15;5.75;;;15.50;99.90;;;;;;5054655;28;20044;-73
2023/11/05 03:59:34;;;;;;;21.05;4.55;;;15.50;99.90;;;;;;5054579;28;20397;-73
2023/11/05 04:02:00;;;;;;;29.85;3.78;;;15.50;99.90;;;;;;5054656;28;20029;-73
2023/11/05 04:04:27;;;;;;;23.35;3.60;;;15.50;99.90;;;;;;5054549;28;20129;-72
2023/11/05 04:06:53;;;;;;;16.73;3.03;;;15.50;99.90;;;;;;5054766;28;20025;-73
2023/11/05 04:09:19;;;;;;;23.13;3.60;;;15.50;99.90;;;;;;5054406;28;20076;-73
2023/11/05 04:11:44;;;;;;;43.67;4.80;;;15.60;99.90;;;;;;5054450;28;20028;-73
2023/11/05 04:14:10;;;;;;;47.13;6.57;;;15.60;99.90;;;;;;5054231;28;20029;-73
2023/11/05 04:16:38;;;;;;;43.45;5.13;;;15.60;99.90;;;;;;5054411;28;20091;-73
2023/11/05 04:19:04;;;;;;;47.67;7.07;;;15.70;99.90;;;;;;5054283;28;20033;-72
2023/11/05 04:21:30;;;;;;;36.50;4.70;;;15.70;99.90;;;;;;5054086;28;20112;-72
2023/11/05 04:23:56;;;;;;;45.13;6.68;;;15.80;99.90;;;;;;5053804;28;20033;-72
2023/11/05 04:26:25;;;;;;;57.75;6.95;;;15.80;99.90;;;;;;5052919;28;20489;-72
2023/11/05 04:28:51;;;;;;;34.58;5.82;;;15.80;99.90;;;;;;5053665;28;20382;-72
2023/11/05 04:31:17;;;;;;;46.13;6.50;;;15.90;99.90;;;;;;5053570;28;20481;-72
2023/11/05 04:33:43;;;;;;;50.75;7.00;;;15.90;99.90;;;;;;5053618;28;20044;-72
2023/11/05 04:36:09;;;;;;;55.00;6.43;;;15.90;99.90;;;;;;5054158;28;20036;-72
2023/11/05 04:38:36;;;;;;;65.88;7.22;;;15.90;99.90;;;;;;5054005;28;20060;-71
2023/11/05 04:41:02;;;;;;;48.10;5.93;;;15.90;99.90;;;;;;5053779;28;20488;-73
2023/11/05 04:43:28;;;;;;;49.63;7.05;;;16.00;99.90;;;;;;5052571;28;20021;-74
2023/11/05 04:45:54;;;;;;;40.88;4.82;;;16.00;99.90;;;;;;5053670;28;20044;-73
2023/11/05 04:48:20;;;;;;;31.77;5.07;;;15.90;99.90;;;;;;5053810;28;20535;-72
2023/11/05 04:50:49;;;;;;;34.88;3.90;;;15.90;99.90;;;;;;5053373;28;20424;-72
2023/11/05 04:53:15;;;;;;;17.75;2.50;;;15.80;99.90;;;;;;5053539;28;20040;-72
2023/11/05 04:55:41;;;;;;;11.10;1.50;;;15.80;99.90;;;;;;5053381;28;20548;-73
2023/11/05 04:58:07;;;;;;;9.73;2.28;;;15.70;99.90;;;;;;5053419;28;20452;-72
2023/11/05 05:00:37;;;;;;;7.10;1.83;;;15.60;99.90;;;;;;5053187;28;20040;-72
2023/11/05 05:03:12;;;;;;;6.47;0.85;;;15.50;99.90;;;;;;5053137;28;20037;-72
2023/11/05 05:05:37;;;;;;;10.65;1.08;;;15.40;99.90;;;;;;5051909;28;20440;-72
2023/11/05 05:08:03;;;;;;;7.72;1.02;;;15.30;99.90;;;;;;5053536;28;20477;-72
2023/11/05 05:10:29;;;;;;;7.63;0.95;;;15.30;99.90;;;;;;5053219;28;20037;-72
2023/11/05 05:12:55;;;;;;;7.95;0.82;;;15.20;99.90;;;;;;5051913;28;20082;-72
2023/11/05 05:15:21;;;;;;;5.57;0.88;;;15.20;99.90;;;;;;5052879;28;20755;-73
2023/11/05 05:17:50;;;;;;;7.97;1.02;;;15.20;99.90;;;;;;5053171;28;20033;-74
2023/11/05 05:20:16;;;;;;;6.93;0.93;;;15.10;99.90;;;;;;5053376;28;20060;-72
2023/11/05 05:22:42;;;;;;;5.22;0.63;;;15.10;99.90;;;;;;5053051;28;20035;-72
2023/11/05 05:25:08;;;;;;;7.15;0.82;;;15.10;99.90;;;;;;5053063;28;20037;-72
2023/11/05 05:27:34;;;;;;;5.68;0.73;;;15.10;99.90;;;;;;5053092;28;20036;-72
2023/11/05 05:30:04;;;;;;;1.50;0.40;;;15.10;99.90;;;;;;5053057;28;20040;-72
2023/11/05 05:32:32;;;;;;;1.63;0.30;;;15.10;99.90;;;;;;5053021;28;20079;-73
2023/11/05 05:35:01;;;;;;;0.82;0.30;;;15.10;99.90;;;;;;5052826;28;20076;-72
2023/11/05 05:37:30;;;;;;;2.97;0.40;;;15.10;99.90;;;;;;5052695;28;20029;-73
2023/11/05 05:39:56;;;;;;;1.40;0.35;;;15.00;99.90;;;;;;5052707;28;20040;-72
2023/11/05 05:42:21;;;;;;;4.63;0.25;;;15.00;99.90;;;;;;5052572;28;20429;-72
2023/11/05 05:44:49;;;;;;;4.13;0.55;;;15.00;99.90;;;;;;5052615;28;20053;-73
2023/11/05 05:47:15;;;;;;;1.02;0.20;;;15.00;99.90;;;;;;5052698;28;20029;-72
2023/11/05 05:49:47;;;;;;;2.03;0.40;;;14.90;99.90;;;;;;5052827;28;20036;-72
2023/11/05 05:52:14;;;;;;;3.13;0.50;;;14.90;99.90;;;;;;5052743;28;20044;-72
2023/11/05 05:54:40;;;;;;;3.95;0.43;;;14.90;99.90;;;;;;5052436;28;20025;-72
2023/11/05 05:57:15;;;;;;;2.60;0.35;;;14.80;99.90;;;;;;5052167;28;20037;-72
2023/11/05 05:59:41;;;;;;;3.50;0.55;;;14.80;99.90;;;;;;5052411;28;20388;-72
2023/11/05 06:02:27;;;;;;;4.72;0.70;;;14.80;99.90;;;;;;5052456;28;20056;-73
2023/11/05 06:04:55;;;;;;;1.42;0.40;;;14.80;99.90;;;;;;5052423;28;20546;-72
2023/11/05 06:07:21;;;;;;;0.10;0.10;;;14.70;99.90;;;;;;5052618;28;20500;-73
2023/11/05 06:09:48;;;;;;;0.47;0.10;;;14.60;99.90;;;;;;5052327;28;20037;-73
2023/11/05 06:12:14;;;;;;;1.75;0.20;;;14.70;99.90;;;;;;5052569;28;20117;-71
2023/11/05 06:14:40;;;;;;;1.35;0.20;;;14.60;99.90;;;;;;5052607;28;20523;-73
2023/11/05 06:17:06;;;;;;;1.10;0.17;;;14.60;99.90;;;;;;5052704;28;20504;-72
2023/11/05 06:19:35;;;;;;;1.65;0.20;;;14.60;99.90;;;;;;5052627;28;20084;-72
2023/11/05 06:22:03;;;;;;;2.28;0.25;;;14.60;99.90;;;;;;5052425;28;20033;-71
2023/11/05 06:24:29;;;;;;;0.35;0.20;;;14.60;99.90;;;;;;5052144;28;20047;-72
2023/11/05 06:26:58;;;;;;;1.45;0.20;;;14.50;99.90;;;;;;5051866;28;20037;-72
2023/11/05 06:29:27;;;;;;;1.35;0.20;;;14.50;99.90;;;;;;5052120;28;20420;-72
2023/11/05 06:31:53;;;;;;;0.20;0.10;;;14.50;99.90;;;;;;5052460;28;20037;-71
2023/11/05 06:34:19;;;;;;;1.85;0.32;;;14.50;99.90;;;;;;5052018;28;20052;-72
2023/11/05 06:37:03;;;;;;;2.67;0.30;;;14.50;99.90;;;;;;5052155;28;20087;-71
2023/11/05 06:39:29;;;;;;;0.63;0.10;;;14.50;99.90;;;;;;5052280;28;20029;-73
2023/11/05 06:41:58;;;;;;;0.90;0.35;;;14.50;99.90;;;;;;5052396;28;20071;-72
2023/11/05 06:44:25;;;;;;;0.47;0.20;;;14.50;99.90;;;;;;5052095;28;20052;-72
2023/11/05 06:46:52;;;;;;;1.20;0.30;;;14.50;99.90;;;;;;5051746;28;20112;-71
2023/11/05 06:49:20;;;;;;;3.60;0.60;;;14.50;99.90;;;;;;5051836;28;20115;-72
2023/11/05 06:51:46;;;;;;;1.98;0.60;;;14.50;99.90;;;;;;5051752;28;20366;-72
2023/11/05 06:54:15;;;;;;;3.22;0.55;;;14.40;99.90;;;;;;5051679;28;20067;-72
2023/11/05 06:56:44;;;;;;;0.65;0.25;;;14.40;99.90;;;;;;5052010;28;20040;-73
2023/11/05 06:59:10;;;;;;;6.43;0.45;;;14.40;99.90;;;;;;5051860;28;20037;-71
2023/11/05 07:01:36;;;;;;;3.45;0.30;;;14.30;99.90;;;;;;5051625;28;20682;-72
2023/11/05 07:04:02;;;;;;;3.50;0.47;;;14.30;99.90;;;;;;5051615;28;20419;-72
2023/11/05 07:06:28;;;;;;;9.55;0.70;;;14.30;99.90;;;;;;5052954;28;20079;-72
2023/11/05 07:08:57;;;;;;;3.13;0.60;;;14.20;99.90;;;;;;5055734;28;20428;-72
2023/11/05 07:11:26;;;;;;;7.32;1.00;;;14.20;99.90;;;;;;5056585;28;20064;-72
2023/11/05 07:13:55;;;;;;;4.22;0.50;;;14.20;99.90;;;;;;5055717;28;20035;-78
2023/11/05 07:16:22;;;;;;;1.75;0.70;;;14.20;99.90;;;;;;5037823;28;20417;-73
2023/11/05 07:18:48;;;;;;;2.65;1.20;;;14.10;99.90;;;;;;5055372;28;20076;-71
2023/11/05 07:21:14;;;;;;;7.80;1.60;;;14.00;99.90;;;;;;5055300;28;20080;-71
2023/11/05 07:23:44;;;;;;;5.75;1.30;;;13.90;99.90;;;;;;5051783;28;20060;-72
2023/11/05 07:26:13;;;;;;;2.05;1.20;;;13.80;99.90;;;;;;5055215;28;20045;-72
2023/11/05 07:28:39;;;;;;;1.92;1.33;;;13.70;99.90;;;;;;5055194;28;20418;-72
2023/11/05 07:31:05;;;;;;;2.58;0.82;;;13.60;99.90;;;;;;5055126;28;20132;-72
2023/11/05 07:33:34;;;;;;;1.98;1.00;;;13.50;99.90;;;;;;5055021;28;20055;-72
2023/11/05 07:36:01;;;;;;;2.60;1.00;;;13.40;99.90;;;;;;5054089;28;20036;-73
2023/11/05 07:38:27;;;;;;;5.38;1.25;;;13.40;99.90;;;;;;5035233;28;20112;-75
2023/11/05 07:40:54;;;;;;;4.38;1.83;;;13.40;99.90;;;;;;5031626;28;20056;-72
2023/11/05 07:43:20;;;;;;;1.48;0.88;;;13.30;99.90;;;;;;5032061;28;20061;-72
2023/11/05 07:45:49;;;;;;;2.55;1.10;;;13.40;99.90;;;;;;5033534;28;20497;-72
2023/11/05 07:48:15;;;;;;;2.65;1.10;;;13.30;99.90;;;;;;5034750;28;20041;-73
2023/11/05 07:50:41;;;;;;;1.75;1.00;;;13.40;99.90;;;;;;5034984;28;20044;-72
2023/11/05 07:53:12;;;;;;;2.22;1.00;;;13.40;99.90;;;;;;5034760;28;20037;-72
2023/11/05 07:55:41;;;;;;;1.95;0.85;;;13.40;99.90;;;;;;5034852;28;20077;-72
2023/11/05 07:58:08;;;;;;;1.58;0.73;;;13.40;99.90;;;;;;5033864;28;20026;-74
2023/11/05 08:00:34;;;;;;;0.90;0.50;;;13.50;99.90;;;;;;5038567;28;20048;-74
2023/11/05 08:03:03;;;;;;;2.30;0.52;;;13.50;99.90;;;;;;5051669;28;20096;-72
2023/11/05 08:05:29;;;;;;;2.80;0.68;;;13.50;99.90;;;;;;5051446;28;20073;-73
2023/11/05 08:08:01;;;;;;;0.80;0.43;;;13.50;99.90;;;;;;5053880;28;20122;-72
2023/11/05 08:10:28;;;;;;;0.88;0.47;;;13.50;99.90;;;;;;5053792;28;20032;-72
2023/11/05 08:12:54;;;;;;;0.70;0.50;;;13.50;99.90;;;;;;5053918;28;20507;-73
2023/11/05 08:15:20;;;;;;;1.27;0.70;;;13.50;99.90;;;;;;5054425;28;20056;-72
2023/11/05 08:17:47;;;;;;;3.97;0.90;;;13.60;99.90;;;;;;5054019;28;20034;-73
2023/11/05 08:20:14;;;;;;;1.83;0.60;;;13.50;99.90;;;;;;5054587;28;20029;-72
2023/11/05 08:22:43;;;;;;;3.33;0.70;;;13.60;99.90;;;;;;5054168;28;20111;-74
2023/11/05 08:25:11;;;;;;;1.92;1.17;;;13.60;99.90;;;;;;5052831;28;20037;-74
2023/11/05 08:27:40;;;;;;;4.47;1.70;;;13.70;99.90;;;;;;5054409;28;20420;-73
2023/11/05 08:30:13;;;;;;;2.08;0.82;;;13.80;99.90;;;;;;5054430;28;20073;-73
2023/11/05 08:32:42;;;;;;;1.83;0.85;;;13.90;99.90;;;;;;5054072;28;20124;-72
2023/11/05 08:35:14;;;;;;;3.55;0.90;;;13.90;99.90;;;;;;5053846;28;20115;-72
2023/11/05 08:37:40;;;;;;;2.70;0.70;;;14.00;99.90;;;;;;5054272;28;20389;-73
2023/11/05 08:40:13;;;;;;;1.23;0.70;;;14.10;99.90;;;;;;5053977;28;20061;-74
2023/11/05 08:42:39;;;;;;;2.88;0.68;;;14.20;99.90;;;;;;5053931;28;20393;-75
2023/11/05 08:45:09;;;;;;;3.00;0.75;;;14.20;99.90;;;;;;5053868;28;20059;-73
2023/11/05 08:47:36;;;;;;;0.30;0.30;;;14.30;99.90;;;;;;5053796;28;20421;-73
2023/11/05 08:50:02;;;;;;;0.47;0.40;;;14.30;99.90;;;;;;5053799;28;20108;-72
2023/11/05 08:52:28;;;;;;;0.98;0.50;;;14.40;99.90;;;;;;5053614;28;20033;-73
2023/11/05 08:54:55;;;;;;;3.22;0.70;;;14.40;99.90;;;;;;5053867;28;20044;-73
2023/11/05 08:57:22;;;;;;;0.52;0.30;;;14.50;99.90;;;;;;5052435;28;20033;-75
2023/11/05 08:59:48;;;;;;;1.67;0.20;;;14.50;99.90;;;;;;5049531;28;20032;-74
2023/11/05 09:02:15;;;;;;;0.60;0.10;;;14.60;99.90;;;;;;5048882;28;20112;-73
2023/11/05 09:04:40;;;;;;;0.10;0.00;;;14.60;99.90;;;;;;5052372;28;20068;-74
2023/11/05 09:07:10;;;;;;;0.50;0.10;;;14.60;99.90;;;;;;5053394;28;20507;-74
2023/11/05 09:09:38;;;;;;;3.70;0.20;;;14.70;99.90;;;;;;5053280;28;20517;-73
2023/11/05 09:12:14;;;;;;;0.73;0.20;;;14.70;99.90;;;;;;5053096;28;20040;-72
2023/11/05 09:14:40;;;;;;;0.80;0.10;;;14.70;99.90;;;;;;5053074;28;20037;-73
2023/11/05 09:17:08;;;;;;;0.68;0.03;;;14.80;99.90;;;;;;5053081;28;20485;-73
2023/11/05 09:19:34;;;;;;;0.20;0.10;;;14.80;99.90;;;;;;5052947;28;20485;-74
2023/11/05 09:22:01;;;;;;;0.95;0.00;;;14.80;99.90;;;;;;5053356;28;20384;-73
2023/11/05 09:24:32;;;;;;;0.00;0.00;;;14.90;99.90;;;;;;5053163;28;20049;-73
2023/11/05 09:26:58;;;;;;;0.68;0.13;;;14.90;99.90;;;;;;5051362;28;20397;-73
2023/11/05 09:29:24;;;;;;;1.55;0.15;;;14.90;99.90;;;;;;5049790;28;20465;-73
2023/11/05 09:31:50;;;;;;;2.63;0.17;;;15.00;99.90;;;;;;5051719;28;20504;-74
2023/11/05 09:34:16;;;;;;;2.80;0.65;;;15.00;99.90;;;;;;5050233;28;20049;-73
2023/11/05 09:36:41;;;;;;;3.08;0.30;;;15.10;99.90;;;;;;5048700;28;20044;-73
2023/11/05 09:39:09;;;;;;;3.08;1.13;;;15.10;99.90;;;;;;5050333;28;20033;-73
2023/11/05 09:41:38;;;;;;;1.70;0.22;;;15.20;99.90;;;;;;5052541;28;20055;-73
2023/11/05 09:44:05;;;;;;;4.30;0.40;;;15.20;99.90;;;;;;5052157;28;20033;-74
2023/11/05 09:46:32;;;;;;;2.20;0.22;;;15.20;99.90;;;;;;5052337;28;20040;-73
2023/11/05 09:48:58;;;;;;;1.65;0.30;;;15.20;99.90;;;;;;5050290;28;20037;-73
2023/11/05 09:51:24;;;;;;;2.33;0.30;;;15.20;99.90;;;;;;5051783;28;20385;-73
2023/11/05 09:53:50;;;;;;;5.63;0.40;;;15.20;99.90;;;;;;5053107;28;20025;-73
2023/11/05 09:56:16;;;;;;;1.40;0.20;;;15.20;99.90;;;;;;5052591;28;20111;-73
2023/11/05 09:58:42;;;;;;;2.50;0.40;;;15.30;99.90;;;;;;5050931;28;20029;-73
2023/11/05 10:01:08;;;;;;;4.63;0.40;;;15.30;99.90;;;;;;5050109;28;20039;-73
2023/11/05 10:03:35;;;;;;;3.70;0.82;;;15.30;99.90;;;;;;5048662;28;20048;-73
2023/11/05 10:06:03;;;;;;;4.78;0.40;;;15.40;99.90;;;;;;5051501;28;20041;-73
2023/11/05 10:08:33;;;;;;;6.40;0.32;;;15.40;99.90;;;;;;5052890;28;20029;-73
2023/11/05 10:10:59;;;;;;;3.58;0.40;;;15.50;99.90;;;;;;5052862;28;20036;-73
2023/11/05 10:13:31;;;;;;;2.58;0.45;;;15.50;99.90;;;;;;5052434;28;20065;-73
2023/11/05 10:15:58;;;;;;;;;;;15.60;99.90;;;;;;5053071;28;20532;-73
2023/11/05 10:18:24;;;;;;;4.13;0.50;;;15.70;99.90;;;;;;5052616;28;19930;-72
2023/11/05 10:20:58;;;;;;;3.88;0.73;;;15.70;99.90;;;;;;5052473;28;20083;-73
2023/11/05 10:23:26;;;;;;;6.13;0.70;;;15.80;99.90;;;;;;5052816;28;20029;-73
2023/11/05 10:25:53;;;;;;;4.38;0.60;;;15.80;99.90;;;;;;5052574;28;20037;-73
2023/11/05 10:28:20;;;;;;;4.60;0.50;;;15.80;99.90;;;;;;5052368;28;20108;-73
2023/11/05 10:30:54;;;;;;;6.35;0.70;;;15.80;99.90;;;;;;5052715;28;20037;-72
2023/11/05 10:33:20;;;;;;;4.47;0.50;;;15.70;99.90;;;;;;5052687;28;20452;-72
2023/11/05 10:35:45;;;;;;;6.95;1.00;;;15.80;99.90;;;;;;5052557;28;20033;-73
2023/11/05 10:38:18;;;;;;;4.25;1.00;;;15.70;99.90;;;;;;5051205;28;20041;-73
2023/11/05 10:40:46;;;;;;;3.58;0.60;;;15.80;99.90;;;;;;5051439;28;20025;-73
2023/11/05 10:43:13;;;;;;;3.03;0.60;;;15.90;99.90;;;;;;5053868;28;20087;-73
2023/11/05 10:45:40;;;;;;;7.22;0.75;;;15.90;99.90;;;;;;5055422;28;20113;-72
2023/11/05 10:48:09;;;;;;;2.80;0.43;;;16.00;99.90;;;;;;5056141;28;20032;-72
2023/11/05 10:50:37;;;;;;;6.03;0.70;;;16.00;99.90;;;;;;5056062;28;20045;-73
2023/11/05 10:53:06;;;;;;;1.92;0.47;;;16.10;99.90;;;;;;5056017;28;20429;-72
2023/11/05 10:55:33;;;;;;;4.50;0.70;;;16.10;99.90;;;;;;5056029;28;20107;-73
2023/11/05 10:58:00;;;;;;;4.40;0.60;;;16.20;99.90;;;;;;5055767;28;20052;-74
2023/11/05 11:00:26;;;;;;;4.05;0.50;;;16.20;99.90;;;;;;5055709;28;20102;-73
2023/11/05 11:02:54;;;;;;;4.75;0.50;;;16.10;99.90;;;;;;5055962;28;20084;-72
2023/11/05 11:05:20;;;;;;;5.68;0.70;;;16.10;99.90;;;;;;5055521;28;20396;-72
2023/11/05 11:07:46;;;;;;;5.43;0.80;;;16.10;99.90;;;;;;5055476;28;20033;-75
2023/11/05 11:10:20;;;;;;;5.38;0.63;;;16.10;99.90;;;;;;5055784;28;20401;-73
2023/11/05 11:12:46;;;;;;;6.32;0.88;;;16.20;99.90;;;;;;5056005;28;20396;-73
2023/11/05 11:15:33;;;;;;;5.90;0.80;;;16.20;99.90;;;;;;5055731;28;20108;-73
2023/11/05 11:18:03;;;;;;;3.15;0.50;;;16.30;99.90;;;;;;5054325;28;20429;-73
2023/11/05 11:20:37;;;;;;;4.55;0.93;;;16.30;99.90;;;;;;5055751;28;20448;-73
2023/11/05 11:23:03;;;;;;;5.72;0.65;;;16.30;99.90;;;;;;5054198;28;20075;-73
2023/11/05 11:25:33;;;;;;;7.03;0.57;;;16.40;99.90;;;;;;5053038;28;20610;-72
2023/11/05 11:28:10;;;;;;;5.00;0.77;;;16.40;99.90;;;;;;5053629;28;20029;-73
2023/11/05 11:30:36;;;;;;;5.50;0.60;;;16.40;99.90;;;;;;5055571;28;20107;-72
2023/11/05 11:33:02;;;;;;;7.30;0.95;;;16.30;99.90;;;;;;5055528;28;20036;-72
2023/11/05 11:35:28;;;;;;;4.57;0.82;;;16.30;99.90;;;;;;5055057;28;20057;-72
2023/11/05 11:37:57;;;;;;;10.18;0.60;;;16.30;99.90;;;;;;5055005;28;20025;-72
2023/11/05 11:40:22;;;;;;;2.10;0.40;;;16.30;99.90;;;;;;5055380;28;20029;-72
2023/11/05 11:42:48;;;;;;;5.63;0.47;;;16.30;99.90;;;;;;5055345;28;20040;-75
2023/11/05 11:45:14;;;;;;;9.75;1.48;;;16.30;99.90;;;;;;5054153;28;20090;-74
2023/11/05 11:47:41;;;;;;;4.88;0.50;;;16.20;99.90;;;;;;5055405;28;20448;-75
2023/11/05 11:50:08;;;;;;;3.38;0.95;;;16.30;99.90;;;;;;5055239;28;20075;-74
2023/11/05 11:52:52;;;;;;;7.72;0.90;;;16.20;99.90;;;;;;5054397;28;20116;-73
2023/11/05 11:55:24;;;;;;;8.48;0.82;;;16.30;99.90;;;;;;5054761;28;20040;-74
2023/11/05 11:57:50;;;;;;;2.13;0.47;;;16.30;99.90;;;;;;5053947;28;20033;-72
2023/11/05 12:00:20;;;;;;;4.20;0.60;;;16.30;99.90;;;;;;5050507;28;20036;-73
2023/11/05 12:02:53;;;;;;;2.10;0.40;;;16.30;99.90;;;;;;5052525;28;20043;-73
2023/11/05 12:05:20;;;;;;;2.67;0.60;;;16.30;99.90;;;;;;5054825;28;20048;-73
2023/11/05 12:07:55;;;;;;;5.93;0.68;;;16.30;99.90;;;;;;5054748;28;20029;-73
2023/11/05 12:10:21;;;;;;;3.85;0.57;;;16.40;99.90;;;;;;5054693;28;20121;-73
2023/11/05 12:12:48;;;;;;;7.68;0.80;;;16.40;99.90;;;;;;5054801;28;20120;-73
2023/11/05 12:15:15;;;;;;;4.60;0.77;;;16.40;99.90;;;;;;5054532;28;20091;-73
2023/11/05 12:17:44;;;;;;;8.32;0.73;;;16.30;99.90;;;;;;5054589;28;20404;-73
2023/11/05 12:20:14;;;;;;;4.68;0.88;;;16.30;99.90;;;;;;5054540;28;20029;-73
2023/11/05 12:22:46;;;;;;;3.33;0.68;;;16.30;99.90;;;;;;5053430;28;20037;-72
2023/11/05 12:25:12;;;;;;;4.20;0.80;;;16.30;99.90;;;;;;5051854;28;20060;-73
2023/11/05 12:27:49;;;;;;;5.78;1.02;;;16.20;99.90;;;;;;5051880;28;20071;-73
2023/11/05 12:30:24;;;;;;;2.97;0.82;;;16.30;99.90;;;;;;5053195;28;20428;-73
2023/11/05 12:32:52;;;;;;;7.18;1.33;;;16.20;99.90;;;;;;5054137;28;20041;-72
2023/11/05 12:35:18;;;;;;;12.32;1.20;;;16.20;99.90;;;;;;5054314;28;20063;-73
2023/11/05 12:37:44;;;;;;;5.40;0.90;;;16.20;99.90;;;;;;5054158;28;20416;-73
2023/11/05 12:40:10;;;;;;;3.17;0.55;;;16.20;99.90;;;;;;5054160;28;20112;-73
2023/11/05 12:42:41;;;;;;;7.60;0.98;;;16.20;99.90;;;;;;5054122;28;20428;-73
2023/11/05 12:45:07;;;;;;;9.73;1.30;;;16.20;99.90;;;;;;5053932;28;20041;-73
2023/11/05 12:47:34;;;;;;;5.38;1.00;;;16.10;99.90;;;;;;5054097;28;20037;-73